Terminal Aerodrome Forecast
Issued by NWS Missoula, MT

Home | Current Version | Previous Version | Text Only | Print | Product List | Glossary On
Versions: 1 2 3 4 5 6 7 8 9 10 11 12 13 14 15 16
000
FTUS45 KMSO 261135
TAFBTM
TAF
KBTM 261135Z 2612/2712 09004KT P6SM BKN080
     FM261700 33009KT P6SM VCSH BKN080
     FM270300 VRB02KT P6SM SCT080=

USA.gov is the U.S. government's official web portal to all federal, state and local government web resources and services.